sensor_id;sensor_type;location;lat;lon;timestamp;P1;durP1;ratioP1;P2;durP2;ratioP2
44564;SDS011;30275;51.822;-0.326;2022-12-18T00:03:56;34.88;;;17.33;;
44564;SDS011;30275;51.822;-0.326;2022-12-18T00:06:23;35.40;;;16.75;;
44564;SDS011;30275;51.822;-0.326;2022-12-18T00:08:49;46.70;;;19.67;;
44564;SDS011;30275;51.822;-0.326;2022-12-18T00:11:17;39.83;;;17.20;;
44564;SDS011;30275;51.822;-0.326;2022-12-18T00:13:44;41.58;;;18.67;;
44564;SDS011;30275;51.822;-0.326;2022-12-18T00:16:11;40.47;;;17.27;;
44564;SDS011;30275;51.822;-0.326;2022-12-18T00:18:39;41.33;;;18.40;;
44564;SDS011;30275;51.822;-0.326;2022-12-18T00:21:05;37.38;;;16.35;;
44564;SDS011;30275;51.822;-0.326;2022-12-18T00:23:33;43.90;;;19.73;;
44564;SDS011;30275;51.822;-0.326;2022-12-18T00:26:00;48.50;;;17.98;;
44564;SDS011;30275;51.822;-0.326;2022-12-18T00:28:27;44.72;;;18.23;;
44564;SDS011;30275;51.822;-0.326;2022-12-18T00:30:59;57.95;;;22.90;;
44564;SDS011;30275;51.822;-0.326;2022-12-18T00:33:26;67.32;;;20.02;;
44564;SDS011;30275;51.822;-0.326;2022-12-18T00:35:52;70.10;;;20.08;;
44564;SDS011;30275;51.822;-0.326;2022-12-18T00:38:18;63.42;;;17.95;;
44564;SDS011;30275;51.822;-0.326;2022-12-18T00:40:43;51.00;;;17.52;;
44564;SDS011;30275;51.822;-0.326;2022-12-18T00:43:09;56.72;;;19.48;;
44564;SDS011;30275;51.822;-0.326;2022-12-18T00:45:35;55.13;;;18.08;;
44564;SDS011;30275;51.822;-0.326;2022-12-18T00:48:01;53.45;;;18.88;;
44564;SDS011;30275;51.822;-0.326;2022-12-18T00:50:27;61.17;;;19.33;;
44564;SDS011;30275;51.822;-0.326;2022-12-18T00:52:52;66.97;;;20.10;;
44564;SDS011;30275;51.822;-0.326;2022-12-18T00:55:18;58.97;;;20.90;;
44564;SDS011;30275;51.822;-0.326;2022-12-18T00:57:44;87.95;;;21.05;;
44564;SDS011;30275;51.822;-0.326;2022-12-18T01:00:11;98.55;;;26.55;;
44564;SDS011;30275;51.822;-0.326;2022-12-18T01:02:39;92.95;;;22.65;;
44564;SDS011;30275;51.822;-0.326;2022-12-18T01:05:05;90.15;;;22.55;;
44564;SDS011;30275;51.822;-0.326;2022-12-18T01:07:32;88.57;;;23.67;;
44564;SDS011;30275;51.822;-0.326;2022-12-18T01:09:57;83.65;;;22.13;;
44564;SDS011;30275;51.822;-0.326;2022-12-18T01:12:23;70.68;;;20.83;;
44564;SDS011;30275;51.822;-0.326;2022-12-18T01:14:49;65.10;;;23.40;;
44564;SDS011;30275;51.822;-0.326;2022-12-18T01:17:14;62.10;;;23.70;;
44564;SDS011;30275;51.822;-0.326;2022-12-18T01:19:40;75.80;;;23.30;;
44564;SDS011;30275;51.822;-0.326;2022-12-18T01:22:05;63.28;;;22.17;;
44564;SDS011;30275;51.822;-0.326;2022-12-18T01:24:31;149.00;;;27.95;;
44564;SDS011;30275;51.822;-0.326;2022-12-18T01:26:56;64.35;;;20.45;;
44564;SDS011;30275;51.822;-0.326;2022-12-18T01:29:22;61.95;;;21.80;;
44564;SDS011;30275;51.822;-0.326;2022-12-18T01:31:48;62.72;;;21.70;;
44564;SDS011;30275;51.822;-0.326;2022-12-18T01:34:14;73.35;;;22.92;;
44564;SDS011;30275;51.822;-0.326;2022-12-18T01:36:39;76.28;;;25.98;;
44564;SDS011;30275;51.822;-0.326;2022-12-18T01:39:12;64.68;;;23.60;;
44564;SDS011;30275;51.822;-0.326;2022-12-18T01:41:39;66.30;;;25.55;;
44564;SDS011;30275;51.822;-0.326;2022-12-18T01:47:46;75.47;;;25.38;;
44564;SDS011;30275;51.822;-0.326;2022-12-18T01:50:21;76.00;;;25.38;;
44564;SDS011;30275;51.822;-0.326;2022-12-18T01:52:59;66.05;;;23.90;;
44564;SDS011;30275;51.822;-0.326;2022-12-18T01:55:37;60.58;;;20.80;;
44564;SDS011;30275;51.822;-0.326;2022-12-18T01:58:08;62.45;;;23.83;;
44564;SDS011;30275;51.822;-0.326;2022-12-18T02:00:34;68.40;;;24.63;;
44564;SDS011;30275;51.822;-0.326;2022-12-18T02:03:00;68.85;;;26.25;;
44564;SDS011;30275;51.822;-0.326;2022-12-18T02:08:16;69.78;;;23.95;;
44564;SDS011;30275;51.822;-0.326;2022-12-18T02:13:43;56.58;;;21.05;;
44564;SDS011;30275;51.822;-0.326;2022-12-18T02:16:34;56.40;;;19.70;;
44564;SDS011;30275;51.822;-0.326;2022-12-18T02:27:40;61.55;;;20.92;;
44564;SDS011;30275;51.822;-0.326;2022-12-18T02:30:09;69.15;;;25.33;;
44564;SDS011;30275;51.822;-0.326;2022-12-18T02:32:36;63.90;;;24.00;;
44564;SDS011;30275;51.822;-0.326;2022-12-18T02:35:06;61.05;;;22.17;;
44564;SDS011;30275;51.822;-0.326;2022-12-18T02:37:39;81.50;;;26.73;;
44564;SDS011;30275;51.822;-0.326;2022-12-18T02:40:07;76.90;;;25.10;;
44564;SDS011;30275;51.822;-0.326;2022-12-18T02:42:34;90.07;;;28.73;;
44564;SDS011;30275;51.822;-0.326;2022-12-18T02:44:59;88.07;;;30.88;;
44564;SDS011;30275;51.822;-0.326;2022-12-18T02:47:28;89.28;;;29.98;;
44564;SDS011;30275;51.822;-0.326;2022-12-18T02:52:38;54.65;;;19.60;;
44564;SDS011;30275;51.822;-0.326;2022-12-18T03:00:48;71.53;;;25.02;;
44564;SDS011;30275;51.822;-0.326;2022-12-18T03:03:41;81.05;;;28.27;;
44564;SDS011;30275;51.822;-0.326;2022-12-18T03:06:23;88.13;;;30.70;;
44564;SDS011;30275;51.822;-0.326;2022-12-18T03:08:54;115.68;;;30.95;;
44564;SDS011;30275;51.822;-0.326;2022-12-18T03:11:23;111.68;;;34.90;;
44564;SDS011;30275;51.822;-0.326;2022-12-18T03:14:11;115.68;;;32.55;;
44564;SDS011;30275;51.822;-0.326;2022-12-18T03:16:44;104.50;;;32.33;;
44564;SDS011;30275;51.822;-0.326;2022-12-18T03:19:15;70.65;;;26.75;;
44564;SDS011;30275;51.822;-0.326;2022-12-18T03:21:47;66.88;;;23.92;;
44564;SDS011;30275;51.822;-0.326;2022-12-18T03:24:23;89.60;;;27.58;;
44564;SDS011;30275;51.822;-0.326;2022-12-18T03:26:52;87.40;;;29.58;;
44564;SDS011;30275;51.822;-0.326;2022-12-18T03:29:21;95.88;;;27.20;;
44564;SDS011;30275;51.822;-0.326;2022-12-18T03:31:49;89.45;;;26.23;;
44564;SDS011;30275;51.822;-0.326;2022-12-18T03:34:21;86.88;;;28.48;;
44564;SDS011;30275;51.822;-0.326;2022-12-18T03:39:17;44.60;;;17.00;;
44564;SDS011;30275;51.822;-0.326;2022-12-18T03:41:45;48.30;;;17.23;;
44564;SDS011;30275;51.822;-0.326;2022-12-18T03:44:28;49.75;;;19.42;;
44564;SDS011;30275;51.822;-0.326;2022-12-18T03:49:48;72.93;;;22.15;;
44564;SDS011;30275;51.822;-0.326;2022-12-18T03:54:47;50.27;;;21.40;;
44564;SDS011;30275;51.822;-0.326;2022-12-18T03:57:31;56.20;;;21.58;;
44564;SDS011;30275;51.822;-0.326;2022-12-18T04:00:02;47.28;;;17.83;;
44564;SDS011;30275;51.822;-0.326;2022-12-18T04:02:34;46.42;;;18.05;;
44564;SDS011;30275;51.822;-0.326;2022-12-18T04:05:03;48.35;;;18.42;;
44564;SDS011;30275;51.822;-0.326;2022-12-18T04:07:30;46.58;;;17.98;;
44564;SDS011;30275;51.822;-0.326;2022-12-18T04:09:58;51.13;;;19.30;;
44564;SDS011;30275;51.822;-0.326;2022-12-18T04:12:26;52.95;;;20.23;;
44564;SDS011;30275;51.822;-0.326;2022-12-18T04:14:53;53.00;;;18.30;;
44564;SDS011;30275;51.822;-0.326;2022-12-18T04:17:19;62.45;;;21.17;;
44564;SDS011;30275;51.822;-0.326;2022-12-18T04:19:45;59.25;;;20.45;;
44564;SDS011;30275;51.822;-0.326;2022-12-18T04:22:10;60.88;;;21.10;;
44564;SDS011;30275;51.822;-0.326;2022-12-18T04:24:36;60.58;;;20.70;;
44564;SDS011;30275;51.822;-0.326;2022-12-18T04:27:02;56.97;;;19.50;;
44564;SDS011;30275;51.822;-0.326;2022-12-18T04:29:28;52.08;;;18.58;;
44564;SDS011;30275;51.822;-0.326;2022-12-18T04:31:53;48.58;;;18.80;;
44564;SDS011;30275;51.822;-0.326;2022-12-18T04:34:19;53.15;;;19.02;;
44564;SDS011;30275;51.822;-0.326;2022-12-18T04:36:45;54.42;;;20.30;;
44564;SDS011;30275;51.822;-0.326;2022-12-18T04:39:11;54.90;;;18.23;;
44564;SDS011;30275;51.822;-0.326;2022-12-18T04:41:37;53.53;;;19.35;;
44564;SDS011;30275;51.822;-0.326;2022-12-18T04:44:02;52.78;;;19.70;;
44564;SDS011;30275;51.822;-0.326;2022-12-18T04:46:28;45.45;;;16.20;;
44564;SDS011;30275;51.822;-0.326;2022-12-18T04:48:54;60.50;;;21.10;;
44564;SDS011;30275;51.822;-0.326;2022-12-18T04:51:19;57.75;;;19.25;;
44564;SDS011;30275;51.822;-0.326;2022-12-18T04:53:45;76.22;;;21.10;;
44564;SDS011;30275;51.822;-0.326;2022-12-18T04:56:12;63.25;;;19.20;;
44564;SDS011;30275;51.822;-0.326;2022-12-18T04:58:40;52.10;;;17.98;;
44564;SDS011;30275;51.822;-0.326;2022-12-18T05:01:07;54.63;;;17.13;;
44564;SDS011;30275;51.822;-0.326;2022-12-18T05:03:33;59.13;;;18.27;;
44564;SDS011;30275;51.822;-0.326;2022-12-18T05:06:00;52.63;;;16.10;;
44564;SDS011;30275;51.822;-0.326;2022-12-18T05:08:26;65.50;;;18.90;;
44564;SDS011;30275;51.822;-0.326;2022-12-18T05:11:01;61.30;;;19.85;;
44564;SDS011;30275;51.822;-0.326;2022-12-18T05:13:29;52.30;;;18.20;;
44564;SDS011;30275;51.822;-0.326;2022-12-18T05:15:55;60.13;;;20.73;;
44564;SDS011;30275;51.822;-0.326;2022-12-18T05:18:22;59.10;;;18.80;;
44564;SDS011;30275;51.822;-0.326;2022-12-18T05:20:48;62.53;;;19.55;;
44564;SDS011;30275;51.822;-0.326;2022-12-18T05:23:15;57.65;;;20.17;;
44564;SDS011;30275;51.822;-0.326;2022-12-18T05:25:41;62.75;;;19.55;;
44564;SDS011;30275;51.822;-0.326;2022-12-18T05:28:06;59.63;;;19.20;;
44564;SDS011;30275;51.822;-0.326;2022-12-18T05:30:32;62.53;;;19.38;;
44564;SDS011;30275;51.822;-0.326;2022-12-18T05:32:58;61.72;;;22.02;;
44564;SDS011;30275;51.822;-0.326;2022-12-18T05:35:23;67.65;;;22.17;;
44564;SDS011;30275;51.822;-0.326;2022-12-18T05:37:49;64.80;;;20.75;;
44564;SDS011;30275;51.822;-0.326;2022-12-18T05:40:14;68.72;;;23.92;;
44564;SDS011;30275;51.822;-0.326;2022-12-18T05:42:40;72.07;;;22.45;;
44564;SDS011;30275;51.822;-0.326;2022-12-18T05:45:06;71.28;;;22.33;;
44564;SDS011;30275;51.822;-0.326;2022-12-18T05:47:32;78.68;;;24.02;;
44564;SDS011;30275;51.822;-0.326;2022-12-18T05:49:57;72.32;;;23.67;;
44564;SDS011;30275;51.822;-0.326;2022-12-18T05:52:23;70.63;;;23.30;;
44564;SDS011;30275;51.822;-0.326;2022-12-18T05:54:49;70.90;;;23.40;;
44564;SDS011;30275;51.822;-0.326;2022-12-18T05:57:15;66.47;;;23.60;;
44564;SDS011;30275;51.822;-0.326;2022-12-18T05:59:40;72.95;;;23.27;;
44564;SDS011;30275;51.822;-0.326;2022-12-18T06:02:06;71.22;;;23.90;;
44564;SDS011;30275;51.822;-0.326;2022-12-18T06:04:32;69.05;;;24.92;;
44564;SDS011;30275;51.822;-0.326;2022-12-18T06:06:57;71.13;;;23.45;;
44564;SDS011;30275;51.822;-0.326;2022-12-18T06:09:23;72.57;;;25.20;;
44564;SDS011;30275;51.822;-0.326;2022-12-18T06:11:50;79.47;;;24.10;;
44564;SDS011;30275;51.822;-0.326;2022-12-18T06:14:17;63.45;;;22.27;;
44564;SDS011;30275;51.822;-0.326;2022-12-18T06:16:42;77.43;;;26.88;;
44564;SDS011;30275;51.822;-0.326;2022-12-18T06:19:12;87.35;;;28.05;;
44564;SDS011;30275;51.822;-0.326;2022-12-18T06:21:39;67.95;;;24.90;;
44564;SDS011;30275;51.822;-0.326;2022-12-18T06:24:05;84.57;;;26.52;;
44564;SDS011;30275;51.822;-0.326;2022-12-18T06:26:31;83.38;;;25.77;;
44564;SDS011;30275;51.822;-0.326;2022-12-18T06:28:57;83.85;;;28.52;;
44564;SDS011;30275;51.822;-0.326;2022-12-18T06:31:22;92.28;;;28.20;;
44564;SDS011;30275;51.822;-0.326;2022-12-18T06:33:48;79.20;;;26.15;;
44564;SDS011;30275;51.822;-0.326;2022-12-18T06:36:14;95.00;;;29.30;;
44564;SDS011;30275;51.822;-0.326;2022-12-18T06:38:41;91.30;;;31.00;;
44564;SDS011;30275;51.822;-0.326;2022-12-18T06:41:08;77.53;;;27.35;;
44564;SDS011;30275;51.822;-0.326;2022-12-18T06:43:41;86.68;;;31.80;;
44564;SDS011;30275;51.822;-0.326;2022-12-18T06:46:07;81.55;;;29.83;;
44564;SDS011;30275;51.822;-0.326;2022-12-18T06:48:34;89.35;;;29.75;;
44564;SDS011;30275;51.822;-0.326;2022-12-18T06:51:00;91.72;;;29.73;;
44564;SDS011;30275;51.822;-0.326;2022-12-18T06:53:25;92.63;;;33.85;;
44564;SDS011;30275;51.822;-0.326;2022-12-18T06:55:51;88.68;;;30.17;;
44564;SDS011;30275;51.822;-0.326;2022-12-18T06:58:17;97.10;;;34.08;;
44564;SDS011;30275;51.822;-0.326;2022-12-18T07:00:43;81.75;;;29.23;;
44564;SDS011;30275;51.822;-0.326;2022-12-18T07:03:09;83.93;;;27.75;;
44564;SDS011;30275;51.822;-0.326;2022-12-18T07:05:39;99.95;;;34.90;;
44564;SDS011;30275;51.822;-0.326;2022-12-18T07:08:05;98.95;;;34.63;;
44564;SDS011;30275;51.822;-0.326;2022-12-18T07:10:31;72.55;;;26.33;;
44564;SDS011;30275;51.822;-0.326;2022-12-18T07:12:57;87.32;;;29.58;;
44564;SDS011;30275;51.822;-0.326;2022-12-18T07:15:22;84.40;;;29.55;;
44564;SDS011;30275;51.822;-0.326;2022-12-18T07:17:48;82.43;;;31.45;;
44564;SDS011;30275;51.822;-0.326;2022-12-18T07:20:13;90.07;;;30.98;;
44564;SDS011;30275;51.822;-0.326;2022-12-18T07:22:39;82.97;;;32.03;;
44564;SDS011;30275;51.822;-0.326;2022-12-18T07:25:05;86.35;;;30.70;;
44564;SDS011;30275;51.822;-0.326;2022-12-18T07:27:31;80.57;;;28.23;;
44564;SDS011;30275;51.822;-0.326;2022-12-18T07:29:57;81.25;;;29.02;;
44564;SDS011;30275;51.822;-0.326;2022-12-18T07:32:22;86.90;;;30.75;;
44564;SDS011;30275;51.822;-0.326;2022-12-18T07:34:48;81.68;;;28.10;;
44564;SDS011;30275;51.822;-0.326;2022-12-18T07:37:13;76.50;;;27.52;;
44564;SDS011;30275;51.822;-0.326;2022-12-18T07:39:39;73.10;;;27.83;;
44564;SDS011;30275;51.822;-0.326;2022-12-18T07:42:05;90.30;;;30.35;;
44564;SDS011;30275;51.822;-0.326;2022-12-18T07:44:50;86.18;;;29.77;;
44564;SDS011;30275;51.822;-0.326;2022-12-18T07:47:15;84.78;;;32.33;;
44564;SDS011;30275;51.822;-0.326;2022-12-18T07:49:41;88.85;;;32.72;;
44564;SDS011;30275;51.822;-0.326;2022-12-18T07:52:06;83.80;;;33.17;;
44564;SDS011;30275;51.822;-0.326;2022-12-18T07:54:33;77.60;;;29.00;;
44564;SDS011;30275;51.822;-0.326;2022-12-18T07:56:59;88.63;;;31.13;;
44564;SDS011;30275;51.822;-0.326;2022-12-18T07:59:24;75.88;;;28.25;;
44564;SDS011;30275;51.822;-0.326;2022-12-18T08:01:50;77.75;;;26.20;;
44564;SDS011;30275;51.822;-0.326;2022-12-18T08:04:16;74.57;;;27.77;;
44564;SDS011;30275;51.822;-0.326;2022-12-18T08:06:41;77.13;;;27.80;;
44564;SDS011;30275;51.822;-0.326;2022-12-18T08:09:07;80.65;;;27.83;;
44564;SDS011;30275;51.822;-0.326;2022-12-18T08:11:34;78.10;;;27.58;;
44564;SDS011;30275;51.822;-0.326;2022-12-18T08:14:00;73.13;;;27.25;;
44564;SDS011;30275;51.822;-0.326;2022-12-18T08:16:25;73.38;;;25.30;;
44564;SDS011;30275;51.822;-0.326;2022-12-18T08:18:51;71.00;;;26.05;;
44564;SDS011;30275;51.822;-0.326;2022-12-18T08:21:19;83.00;;;27.90;;
44564;SDS011;30275;51.822;-0.326;2022-12-18T08:23:48;70.00;;;25.52;;
44564;SDS011;30275;51.822;-0.326;2022-12-18T08:26:15;71.55;;;27.25;;
44564;SDS011;30275;51.822;-0.326;2022-12-18T08:28:41;58.38;;;26.58;;
44564;SDS011;30275;51.822;-0.326;2022-12-18T08:31:07;57.53;;;22.65;;
44564;SDS011;30275;51.822;-0.326;2022-12-18T08:33:33;49.47;;;20.50;;
44564;SDS011;30275;51.822;-0.326;2022-12-18T08:36:00;64.70;;;25.38;;
44564;SDS011;30275;51.822;-0.326;2022-12-18T08:38:26;59.20;;;24.52;;
44564;SDS011;30275;51.822;-0.326;2022-12-18T08:41:05;63.13;;;27.50;;
44564;SDS011;30275;51.822;-0.326;2022-12-18T08:43:33;69.68;;;24.67;;
44564;SDS011;30275;51.822;-0.326;2022-12-18T08:46:18;64.40;;;25.67;;
44564;SDS011;30275;51.822;-0.326;2022-12-18T08:48:45;60.15;;;22.92;;
44564;SDS011;30275;51.822;-0.326;2022-12-18T08:51:11;68.05;;;24.38;;
44564;SDS011;30275;51.822;-0.326;2022-12-18T08:53:37;65.63;;;22.98;;
44564;SDS011;30275;51.822;-0.326;2022-12-18T08:59:03;58.03;;;23.35;;
44564;SDS011;30275;51.822;-0.326;2022-12-18T09:01:29;71.60;;;27.92;;
44564;SDS011;30275;51.822;-0.326;2022-12-18T09:03:55;56.78;;;23.48;;
44564;SDS011;30275;51.822;-0.326;2022-12-18T09:06:21;64.82;;;25.75;;
44564;SDS011;30275;51.822;-0.326;2022-12-18T09:08:48;63.63;;;23.23;;
44564;SDS011;30275;51.822;-0.326;2022-12-18T09:11:15;63.67;;;23.63;;
44564;SDS011;30275;51.822;-0.326;2022-12-18T09:13:48;66.55;;;26.92;;
44564;SDS011;30275;51.822;-0.326;2022-12-18T09:16:14;57.20;;;24.13;;
44564;SDS011;30275;51.822;-0.326;2022-12-18T09:18:40;51.95;;;21.63;;
44564;SDS011;30275;51.822;-0.326;2022-12-18T09:21:12;57.47;;;23.80;;
44564;SDS011;30275;51.822;-0.326;2022-12-18T09:23:40;51.13;;;21.52;;
44564;SDS011;30275;51.822;-0.326;2022-12-18T09:26:07;59.97;;;23.95;;
44564;SDS011;30275;51.822;-0.326;2022-12-18T09:28:33;63.15;;;25.05;;
44564;SDS011;30275;51.822;-0.326;2022-12-18T09:31:03;67.72;;;25.80;;
44564;SDS011;30275;51.822;-0.326;2022-12-18T09:33:31;58.25;;;23.58;;
44564;SDS011;30275;51.822;-0.326;2022-12-18T09:35:57;56.90;;;25.13;;
44564;SDS011;30275;51.822;-0.326;2022-12-18T09:38:23;58.55;;;23.48;;
44564;SDS011;30275;51.822;-0.326;2022-12-18T09:40:53;59.35;;;24.48;;
44564;SDS011;30275;51.822;-0.326;2022-12-18T09:43:41;51.95;;;21.92;;
44564;SDS011;30275;51.822;-0.326;2022-12-18T09:46:17;64.30;;;26.40;;
44564;SDS011;30275;51.822;-0.326;2022-12-18T09:48:50;42.75;;;19.38;;
44564;SDS011;30275;51.822;-0.326;2022-12-18T09:51:39;59.58;;;23.92;;
44564;SDS011;30275;51.822;-0.326;2022-12-18T09:54:48;58.03;;;25.52;;
44564;SDS011;30275;51.822;-0.326;2022-12-18T09:57:21;63.00;;;22.50;;
44564;SDS011;30275;51.822;-0.326;2022-12-18T09:59:51;57.92;;;23.55;;
44564;SDS011;30275;51.822;-0.326;2022-12-18T10:02:25;55.42;;;23.92;;
44564;SDS011;30275;51.822;-0.326;2022-12-18T10:04:58;62.42;;;24.92;;
44564;SDS011;30275;51.822;-0.326;2022-12-18T10:10:37;64.35;;;25.63;;
44564;SDS011;30275;51.822;-0.326;2022-12-18T10:21:30;61.15;;;24.48;;
44564;SDS011;30275;51.822;-0.326;2022-12-18T10:24:04;59.83;;;26.17;;
44564;SDS011;30275;51.822;-0.326;2022-12-18T10:26:33;58.72;;;23.83;;
44564;SDS011;30275;51.822;-0.326;2022-12-18T10:28:59;58.05;;;25.05;;
44564;SDS011;30275;51.822;-0.326;2022-12-18T10:31:26;56.25;;;25.40;;
44564;SDS011;30275;51.822;-0.326;2022-12-18T10:33:55;61.90;;;27.63;;
44564;SDS011;30275;51.822;-0.326;2022-12-18T10:36:20;60.65;;;24.83;;
44564;SDS011;30275;51.822;-0.326;2022-12-18T10:38:48;54.50;;;23.80;;
44564;SDS011;30275;51.822;-0.326;2022-12-18T10:44:15;57.85;;;23.25;;
44564;SDS011;30275;51.822;-0.326;2022-12-18T10:46:43;57.90;;;25.02;;
44564;SDS011;30275;51.822;-0.326;2022-12-18T10:49:18;58.92;;;26.05;;
44564;SDS011;30275;51.822;-0.326;2022-12-18T10:51:47;54.58;;;24.92;;
44564;SDS011;30275;51.822;-0.326;2022-12-18T10:54:17;55.30;;;25.83;;
44564;SDS011;30275;51.822;-0.326;2022-12-18T10:56:47;59.65;;;27.30;;
44564;SDS011;30275;51.822;-0.326;2022-12-18T10:59:14;56.30;;;24.05;;
44564;SDS011;30275;51.822;-0.326;2022-12-18T11:01:54;55.28;;;25.20;;
44564;SDS011;30275;51.822;-0.326;2022-12-18T11:04:29;52.05;;;25.05;;
44564;SDS011;30275;51.822;-0.326;2022-12-18T11:07:03;57.47;;;22.95;;
44564;SDS011;30275;51.822;-0.326;2022-12-18T11:12:19;52.65;;;24.42;;
44564;SDS011;30275;51.822;-0.326;2022-12-18T11:14:51;50.60;;;22.35;;
44564;SDS011;30275;51.822;-0.326;2022-12-18T11:17:29;49.13;;;23.15;;
44564;SDS011;30275;51.822;-0.326;2022-12-18T11:20:00;48.22;;;23.70;;
44564;SDS011;30275;51.822;-0.326;2022-12-18T11:22:32;52.90;;;25.13;;
44564;SDS011;30275;51.822;-0.326;2022-12-18T11:27:30;49.20;;;22.13;;
44564;SDS011;30275;51.822;-0.326;2022-12-18T11:30:13;47.72;;;23.27;;
44564;SDS011;30275;51.822;-0.326;2022-12-18T11:32:49;50.70;;;23.83;;
44564;SDS011;30275;51.822;-0.326;2022-12-18T11:38:00;54.92;;;22.02;;
44564;SDS011;30275;51.822;-0.326;2022-12-18T11:40:35;47.35;;;21.92;;
44564;SDS011;30275;51.822;-0.326;2022-12-18T11:45:35;45.38;;;20.13;;
44564;SDS011;30275;51.822;-0.326;2022-12-18T11:50:49;41.13;;;19.60;;
44564;SDS011;30275;51.822;-0.326;2022-12-18T11:53:16;42.17;;;20.33;;
44564;SDS011;30275;51.822;-0.326;2022-12-18T12:00:59;46.40;;;21.13;;
44564;SDS011;30275;51.822;-0.326;2022-12-18T12:17:04;56.75;;;28.85;;
44564;SDS011;30275;51.822;-0.326;2022-12-18T12:30:14;50.90;;;25.20;;
44564;SDS011;30275;51.822;-0.326;2022-12-18T12:33:14;57.92;;;27.17;;
44564;SDS011;30275;51.822;-0.326;2022-12-18T12:38:26;48.72;;;25.70;;
44564;SDS011;30275;51.822;-0.326;2022-12-18T12:40:58;60.35;;;26.45;;
44564;SDS011;30275;51.822;-0.326;2022-12-18T12:43:57;58.83;;;27.10;;
44564;SDS011;30275;51.822;-0.326;2022-12-18T12:46:26;56.30;;;27.60;;
44564;SDS011;30275;51.822;-0.326;2022-12-18T12:48:56;61.60;;;27.13;;
44564;SDS011;30275;51.822;-0.326;2022-12-18T12:51:34;55.95;;;27.05;;
44564;SDS011;30275;51.822;-0.326;2022-12-18T12:54:02;66.35;;;30.92;;
44564;SDS011;30275;51.822;-0.326;2022-12-18T12:59:43;53.60;;;25.70;;
44564;SDS011;30275;51.822;-0.326;2022-12-18T13:07:41;60.97;;;30.13;;
44564;SDS011;30275;51.822;-0.326;2022-12-18T13:20:45;65.88;;;29.30;;
44564;SDS011;30275;51.822;-0.326;2022-12-18T13:25:49;70.32;;;32.63;;
44564;SDS011;30275;51.822;-0.326;2022-12-18T13:28:18;65.75;;;26.45;;
44564;SDS011;30275;51.822;-0.326;2022-12-18T13:30:58;72.47;;;32.55;;
44564;SDS011;30275;51.822;-0.326;2022-12-18T13:36:00;78.65;;;31.90;;
44564;SDS011;30275;51.822;-0.326;2022-12-18T13:38:45;82.30;;;34.45;;
44564;SDS011;30275;51.822;-0.326;2022-12-18T13:43:52;80.50;;;33.47;;
44564;SDS011;30275;51.822;-0.326;2022-12-18T13:46:20;84.03;;;38.63;;
44564;SDS011;30275;51.822;-0.326;2022-12-18T13:48:51;87.32;;;36.65;;
44564;SDS011;30275;51.822;-0.326;2022-12-18T13:51:20;82.97;;;34.83;;
44564;SDS011;30275;51.822;-0.326;2022-12-18T13:53:51;89.35;;;36.95;;
44564;SDS011;30275;51.822;-0.326;2022-12-18T13:56:24;71.05;;;31.85;;
44564;SDS011;30275;51.822;-0.326;2022-12-18T13:59:12;81.05;;;31.55;;
44564;SDS011;30275;51.822;-0.326;2022-12-18T14:01:48;77.57;;;28.65;;
44564;SDS011;30275;51.822;-0.326;2022-12-18T14:04:21;0.17;;;0.17;;
44564;SDS011;30275;51.822;-0.326;2022-12-18T14:06:51;0.20;;;0.20;;
44564;SDS011;30275;51.822;-0.326;2022-12-18T14:09:27;1.17;;;1.17;;
44564;SDS011;30275;51.822;-0.326;2022-12-18T14:11:55;1.13;;;1.13;;
44564;SDS011;30275;51.822;-0.326;2022-12-18T14:14:43;3.08;;;2.60;;
44564;SDS011;30275;51.822;-0.326;2022-12-18T14:17:11;0.10;;;0.10;;
44564;SDS011;30275;51.822;-0.326;2022-12-18T14:19:44;1.67;;;1.58;;
44564;SDS011;30275;51.822;-0.326;2022-12-18T14:22:13;2.50;;;1.90;;
44564;SDS011;30275;51.822;-0.326;2022-12-18T14:30:36;1.23;;;1.23;;
44564;SDS011;30275;51.822;-0.326;2022-12-18T14:33:04;0.88;;;0.88;;
44564;SDS011;30275;51.822;-0.326;2022-12-18T14:35:34;0.30;;;0.30;;
44564;SDS011;30275;51.822;-0.326;2022-12-18T14:38:22;0.20;;;0.20;;
44564;SDS011;30275;51.822;-0.326;2022-12-18T14:43:27;3.30;;;3.08;;
44564;SDS011;30275;51.822;-0.326;2022-12-18T14:45:54;3.40;;;3.00;;
44564;SDS011;30275;51.822;-0.326;2022-12-18T14:51:31;0.10;;;0.10;;
44564;SDS011;30275;51.822;-0.326;2022-12-18T14:53:55;0.38;;;0.28;;
44564;SDS011;30275;51.822;-0.326;2022-12-18T14:56:29;0.15;;;0.15;;
44564;SDS011;30275;51.822;-0.326;2022-12-18T14:59:00;2.70;;;2.53;;
44564;SDS011;30275;51.822;-0.326;2022-12-18T15:09:43;0.55;;;0.55;;
44564;SDS011;30275;51.822;-0.326;2022-12-18T15:12:22;3.53;;;3.33;;
44564;SDS011;30275;51.822;-0.326;2022-12-18T15:14:53;5.38;;;1.65;;
44564;SDS011;30275;51.822;-0.326;2022-12-18T15:17:20;1.38;;;1.38;;
44564;SDS011;30275;51.822;-0.326;2022-12-18T15:19:48;0.20;;;0.20;;
44564;SDS011;30275;51.822;-0.326;2022-12-18T15:22:26;0.70;;;0.70;;
44564;SDS011;30275;51.822;-0.326;2022-12-18T15:24:54;0.10;;;0.10;;
44564;SDS011;30275;51.822;-0.326;2022-12-18T15:27:31;0.43;;;0.43;;
44564;SDS011;30275;51.822;-0.326;2022-12-18T15:32:37;0.75;;;0.75;;
44564;SDS011;30275;51.822;-0.326;2022-12-18T15:37:33;0.32;;;0.32;;
44564;SDS011;30275;51.822;-0.326;2022-12-18T15:39:58;0.65;;;0.65;;
44564;SDS011;30275;51.822;-0.326;2022-12-18T15:42:24;1.05;;;1.05;;
44564;SDS011;30275;51.822;-0.326;2022-12-18T15:45:11;0.10;;;0.10;;
44564;SDS011;30275;51.822;-0.326;2022-12-18T15:47:37;0.25;;;0.25;;
44564;SDS011;30275;51.822;-0.326;2022-12-18T15:50:03;0.10;;;0.10;;
44564;SDS011;30275;51.822;-0.326;2022-12-18T15:52:31;0.30;;;0.30;;
44564;SDS011;30275;51.822;-0.326;2022-12-18T15:55:14;2.15;;;2.05;;
44564;SDS011;30275;51.822;-0.326;2022-12-18T15:58:04;6.03;;;3.95;;
44564;SDS011;30275;51.822;-0.326;2022-12-18T16:00:31;0.50;;;0.50;;
44564;SDS011;30275;51.822;-0.326;2022-12-18T16:02:57;0.63;;;0.57;;
44564;SDS011;30275;51.822;-0.326;2022-12-18T16:05:23;1.27;;;1.27;;
44564;SDS011;30275;51.822;-0.326;2022-12-18T16:07:49;0.10;;;0.10;;
44564;SDS011;30275;51.822;-0.326;2022-12-18T16:10:15;0.25;;;0.25;;
44564;SDS011;30275;51.822;-0.326;2022-12-18T16:12:41;0.73;;;0.73;;
44564;SDS011;30275;51.822;-0.326;2022-12-18T16:15:07;0.13;;;0.13;;
44564;SDS011;30275;51.822;-0.326;2022-12-18T16:17:37;0.10;;;0.10;;
44564;SDS011;30275;51.822;-0.326;2022-12-18T16:20:03;0.50;;;0.50;;
44564;SDS011;30275;51.822;-0.326;2022-12-18T16:22:29;4.25;;;3.30;;
44564;SDS011;30275;51.822;-0.326;2022-12-18T16:24:56;0.20;;;0.20;;
44564;SDS011;30275;51.822;-0.326;2022-12-18T16:27:23;0.10;;;0.10;;
44564;SDS011;30275;51.822;-0.326;2022-12-18T16:29:49;0.63;;;0.63;;
44564;SDS011;30275;51.822;-0.326;2022-12-18T16:32:19;0.10;;;0.10;;
44564;SDS011;30275;51.822;-0.326;2022-12-18T16:34:46;0.55;;;0.55;;
44564;SDS011;30275;51.822;-0.326;2022-12-18T16:37:12;0.10;;;0.10;;
44564;SDS011;30275;51.822;-0.326;2022-12-18T16:39:41;0.55;;;0.55;;
44564;SDS011;30275;51.822;-0.326;2022-12-18T16:42:15;0.10;;;0.10;;
44564;SDS011;30275;51.822;-0.326;2022-12-18T16:44:44;0.20;;;0.20;;
44564;SDS011;30275;51.822;-0.326;2022-12-18T16:47:11;0.15;;;0.15;;
44564;SDS011;30275;51.822;-0.326;2022-12-18T16:49:37;0.75;;;0.75;;
44564;SDS011;30275;51.822;-0.326;2022-12-18T16:52:03;1.05;;;1.05;;
44564;SDS011;30275;51.822;-0.326;2022-12-18T16:54:30;0.65;;;0.65;;
44564;SDS011;30275;51.822;-0.326;2022-12-18T16:56:55;0.10;;;0.10;;